sensor_id;sensor_type;location;lat;lon;timestamp;P1;durP1;ratioP1;P2;durP2;ratioP2
291;SDS011;23311;48.776;9.162;2022-11-14T00:01:18;16.43;;;12.27;;
291;SDS011;23311;48.776;9.162;2022-11-14T00:03:48;15.93;;;13.07;;
291;SDS011;23311;48.776;9.162;2022-11-14T00:06:17;16.70;;;12.90;;
291;SDS011;23311;48.776;9.162;2022-11-14T00:08:45;15.30;;;12.13;;
291;SDS011;23311;48.776;9.162;2022-11-14T00:11:13;16.63;;;13.10;;
291;SDS011;23311;48.776;9.162;2022-11-14T00:13:42;17.97;;;12.70;;
291;SDS011;23311;48.776;9.162;2022-11-14T00:16:11;19.43;;;14.97;;
291;SDS011;23311;48.776;9.162;2022-11-14T00:18:39;19.23;;;14.63;;
291;SDS011;23311;48.776;9.162;2022-11-14T00:21:08;20.40;;;13.43;;
291;SDS011;23311;48.776;9.162;2022-11-14T00:23:36;19.93;;;14.43;;
291;SDS011;23311;48.776;9.162;2022-11-14T00:26:04;18.13;;;14.77;;
291;SDS011;23311;48.776;9.162;2022-11-14T00:28:32;17.23;;;13.63;;
291;SDS011;23311;48.776;9.162;2022-11-14T00:31:01;22.20;;;14.20;;
291;SDS011;23311;48.776;9.162;2022-11-14T00:33:29;16.33;;;12.93;;
291;SDS011;23311;48.776;9.162;2022-11-14T00:35:57;16.40;;;12.77;;
291;SDS011;23311;48.776;9.162;2022-11-14T00:38:25;17.93;;;13.40;;
291;SDS011;23311;48.776;9.162;2022-11-14T00:40:54;18.57;;;13.27;;
291;SDS011;23311;48.776;9.162;2022-11-14T00:43:22;20.30;;;13.27;;
291;SDS011;23311;48.776;9.162;2022-11-14T00:45:50;16.60;;;13.10;;
291;SDS011;23311;48.776;9.162;2022-11-14T00:48:19;18.40;;;13.43;;
291;SDS011;23311;48.776;9.162;2022-11-14T00:50:48;17.13;;;12.80;;
291;SDS011;23311;48.776;9.162;2022-11-14T00:53:16;18.53;;;12.77;;
291;SDS011;23311;48.776;9.162;2022-11-14T00:55:44;16.27;;;12.93;;
291;SDS011;23311;48.776;9.162;2022-11-14T00:58:12;17.30;;;13.37;;
291;SDS011;23311;48.776;9.162;2022-11-14T01:00:40;18.70;;;13.67;;
291;SDS011;23311;48.776;9.162;2022-11-14T01:03:08;16.77;;;12.50;;
291;SDS011;23311;48.776;9.162;2022-11-14T01:05:40;16.47;;;13.53;;
291;SDS011;23311;48.776;9.162;2022-11-14T01:08:09;17.13;;;13.40;;
291;SDS011;23311;48.776;9.162;2022-11-14T01:10:37;20.57;;;12.53;;
291;SDS011;23311;48.776;9.162;2022-11-14T01:13:07;16.80;;;12.43;;
291;SDS011;23311;48.776;9.162;2022-11-14T01:15:37;17.53;;;13.00;;
291;SDS011;23311;48.776;9.162;2022-11-14T01:18:05;17.30;;;13.27;;
291;SDS011;23311;48.776;9.162;2022-11-14T01:20:33;17.17;;;12.73;;
291;SDS011;23311;48.776;9.162;2022-11-14T01:23:05;19.53;;;13.93;;
291;SDS011;23311;48.776;9.162;2022-11-14T01:25:34;17.67;;;12.83;;
291;SDS011;23311;48.776;9.162;2022-11-14T01:28:04;18.50;;;13.90;;
291;SDS011;23311;48.776;9.162;2022-11-14T01:30:33;20.20;;;13.43;;
291;SDS011;23311;48.776;9.162;2022-11-14T01:33:01;18.80;;;12.93;;
291;SDS011;23311;48.776;9.162;2022-11-14T01:35:29;18.80;;;13.27;;
291;SDS011;23311;48.776;9.162;2022-11-14T01:37:57;16.80;;;12.20;;
291;SDS011;23311;48.776;9.162;2022-11-14T01:40:27;17.57;;;12.90;;
291;SDS011;23311;48.776;9.162;2022-11-14T01:43:21;15.80;;;13.73;;
291;SDS011;23311;48.776;9.162;2022-11-14T01:45:51;17.13;;;12.97;;
291;SDS011;23311;48.776;9.162;2022-11-14T01:48:22;16.20;;;13.40;;
291;SDS011;23311;48.776;9.162;2022-11-14T01:50:55;21.33;;;13.43;;
291;SDS011;23311;48.776;9.162;2022-11-14T01:53:25;15.57;;;12.37;;
291;SDS011;23311;48.776;9.162;2022-11-14T01:55:56;17.83;;;13.13;;
291;SDS011;23311;48.776;9.162;2022-11-14T01:58:27;18.27;;;12.83;;
291;SDS011;23311;48.776;9.162;2022-11-14T02:00:57;19.70;;;13.47;;
291;SDS011;23311;48.776;9.162;2022-11-14T02:03:26;15.67;;;12.27;;
291;SDS011;23311;48.776;9.162;2022-11-14T02:05:55;16.70;;;12.90;;
291;SDS011;23311;48.776;9.162;2022-11-14T02:08:24;18.43;;;13.40;;
291;SDS011;23311;48.776;9.162;2022-11-14T02:10:54;19.47;;;14.20;;
291;SDS011;23311;48.776;9.162;2022-11-14T02:13:22;18.40;;;14.30;;
291;SDS011;23311;48.776;9.162;2022-11-14T02:15:50;17.67;;;12.40;;
291;SDS011;23311;48.776;9.162;2022-11-14T02:18:18;16.93;;;13.50;;
291;SDS011;23311;48.776;9.162;2022-11-14T02:20:48;17.93;;;12.57;;
291;SDS011;23311;48.776;9.162;2022-11-14T02:23:23;17.30;;;12.67;;
291;SDS011;23311;48.776;9.162;2022-11-14T02:25:53;15.80;;;12.20;;
291;SDS011;23311;48.776;9.162;2022-11-14T02:28:21;16.10;;;13.37;;
291;SDS011;23311;48.776;9.162;2022-11-14T02:30:50;16.97;;;12.97;;
291;SDS011;23311;48.776;9.162;2022-11-14T02:33:18;18.53;;;12.50;;
291;SDS011;23311;48.776;9.162;2022-11-14T02:35:47;15.50;;;12.03;;
291;SDS011;23311;48.776;9.162;2022-11-14T02:38:15;14.53;;;11.00;;
291;SDS011;23311;48.776;9.162;2022-11-14T02:40:43;18.77;;;13.27;;
291;SDS011;23311;48.776;9.162;2022-11-14T02:43:11;18.47;;;12.83;;
291;SDS011;23311;48.776;9.162;2022-11-14T02:45:39;16.40;;;12.53;;
291;SDS011;23311;48.776;9.162;2022-11-14T02:48:08;17.87;;;12.93;;
291;SDS011;23311;48.776;9.162;2022-11-14T02:50:36;19.07;;;13.20;;
291;SDS011;23311;48.776;9.162;2022-11-14T02:53:05;17.50;;;12.90;;
291;SDS011;23311;48.776;9.162;2022-11-14T02:55:33;19.23;;;12.60;;
291;SDS011;23311;48.776;9.162;2022-11-14T02:58:01;18.80;;;13.00;;
291;SDS011;23311;48.776;9.162;2022-11-14T03:00:29;16.73;;;12.50;;
291;SDS011;23311;48.776;9.162;2022-11-14T03:02:58;17.87;;;12.63;;
291;SDS011;23311;48.776;9.162;2022-11-14T03:05:26;16.03;;;11.90;;
291;SDS011;23311;48.776;9.162;2022-11-14T03:07:54;17.47;;;13.13;;
291;SDS011;23311;48.776;9.162;2022-11-14T03:10:24;20.50;;;14.70;;
291;SDS011;23311;48.776;9.162;2022-11-14T03:12:52;16.63;;;12.10;;
291;SDS011;23311;48.776;9.162;2022-11-14T03:15:20;17.53;;;13.13;;
291;SDS011;23311;48.776;9.162;2022-11-14T03:17:49;18.00;;;12.33;;
291;SDS011;23311;48.776;9.162;2022-11-14T03:20:17;18.20;;;13.70;;
291;SDS011;23311;48.776;9.162;2022-11-14T03:22:45;19.00;;;13.10;;
291;SDS011;23311;48.776;9.162;2022-11-14T03:25:13;20.40;;;13.47;;
291;SDS011;23311;48.776;9.162;2022-11-14T03:27:43;19.00;;;13.93;;
291;SDS011;23311;48.776;9.162;2022-11-14T03:30:11;18.10;;;13.13;;
291;SDS011;23311;48.776;9.162;2022-11-14T03:32:40;18.20;;;12.37;;
291;SDS011;23311;48.776;9.162;2022-11-14T03:35:09;17.13;;;13.43;;
291;SDS011;23311;48.776;9.162;2022-11-14T03:37:37;18.90;;;13.10;;
291;SDS011;23311;48.776;9.162;2022-11-14T03:40:06;18.90;;;13.50;;
291;SDS011;23311;48.776;9.162;2022-11-14T03:42:35;20.50;;;13.40;;
291;SDS011;23311;48.776;9.162;2022-11-14T03:45:04;18.60;;;12.70;;
291;SDS011;23311;48.776;9.162;2022-11-14T03:47:33;16.60;;;11.77;;
291;SDS011;23311;48.776;9.162;2022-11-14T03:50:01;19.13;;;13.23;;
291;SDS011;23311;48.776;9.162;2022-11-14T03:52:29;18.43;;;13.90;;
291;SDS011;23311;48.776;9.162;2022-11-14T03:54:57;15.87;;;12.13;;
291;SDS011;23311;48.776;9.162;2022-11-14T03:57:25;17.40;;;13.27;;
291;SDS011;23311;48.776;9.162;2022-11-14T03:59:53;16.60;;;12.30;;
291;SDS011;23311;48.776;9.162;2022-11-14T04:02:23;16.07;;;11.87;;
291;SDS011;23311;48.776;9.162;2022-11-14T04:04:51;18.20;;;12.80;;
291;SDS011;23311;48.776;9.162;2022-11-14T04:07:19;15.80;;;11.87;;
291;SDS011;23311;48.776;9.162;2022-11-14T04:09:47;18.60;;;13.03;;
291;SDS011;23311;48.776;9.162;2022-11-14T04:12:17;15.53;;;12.27;;
291;SDS011;23311;48.776;9.162;2022-11-14T04:14:45;16.23;;;11.70;;
291;SDS011;23311;48.776;9.162;2022-11-14T04:17:13;14.93;;;11.40;;
291;SDS011;23311;48.776;9.162;2022-11-14T04:19:42;14.73;;;11.03;;
291;SDS011;23311;48.776;9.162;2022-11-14T04:22:10;15.33;;;11.30;;
291;SDS011;23311;48.776;9.162;2022-11-14T04:24:38;14.20;;;11.23;;
291;SDS011;23311;48.776;9.162;2022-11-14T04:27:06;15.10;;;11.00;;
291;SDS011;23311;48.776;9.162;2022-11-14T04:29:34;14.90;;;11.30;;
291;SDS011;23311;48.776;9.162;2022-11-14T04:32:02;14.70;;;12.00;;
291;SDS011;23311;48.776;9.162;2022-11-14T04:34:31;14.27;;;10.83;;
291;SDS011;23311;48.776;9.162;2022-11-14T04:37:01;14.47;;;11.83;;
291;SDS011;23311;48.776;9.162;2022-11-14T04:39:29;15.67;;;11.00;;
291;SDS011;23311;48.776;9.162;2022-11-14T04:41:57;22.10;;;16.87;;
291;SDS011;23311;48.776;9.162;2022-11-14T04:44:25;12.47;;;10.77;;
291;SDS011;23311;48.776;9.162;2022-11-14T04:46:53;15.33;;;11.20;;
291;SDS011;23311;48.776;9.162;2022-11-14T04:49:21;14.67;;;10.40;;
291;SDS011;23311;48.776;9.162;2022-11-14T04:51:49;13.93;;;10.07;;
291;SDS011;23311;48.776;9.162;2022-11-14T04:54:18;14.10;;;11.43;;
291;SDS011;23311;48.776;9.162;2022-11-14T04:56:47;12.00;;;10.13;;
291;SDS011;23311;48.776;9.162;2022-11-14T04:59:15;14.23;;;10.80;;
291;SDS011;23311;48.776;9.162;2022-11-14T05:01:46;19.63;;;14.70;;
291;SDS011;23311;48.776;9.162;2022-11-14T05:04:14;15.10;;;10.93;;
291;SDS011;23311;48.776;9.162;2022-11-14T05:06:42;13.53;;;10.50;;
291;SDS011;23311;48.776;9.162;2022-11-14T05:09:10;11.97;;;10.37;;
291;SDS011;23311;48.776;9.162;2022-11-14T05:11:40;12.50;;;9.77;;
291;SDS011;23311;48.776;9.162;2022-11-14T05:14:08;13.60;;;10.40;;
291;SDS011;23311;48.776;9.162;2022-11-14T05:16:36;14.23;;;10.43;;
291;SDS011;23311;48.776;9.162;2022-11-14T05:19:04;12.80;;;10.80;;
291;SDS011;23311;48.776;9.162;2022-11-14T05:21:32;14.37;;;12.33;;
291;SDS011;23311;48.776;9.162;2022-11-14T05:24:00;11.90;;;8.97;;
291;SDS011;23311;48.776;9.162;2022-11-14T05:26:28;13.60;;;9.83;;
291;SDS011;23311;48.776;9.162;2022-11-14T05:28:57;12.57;;;9.30;;
291;SDS011;23311;48.776;9.162;2022-11-14T05:31:25;14.70;;;11.40;;
291;SDS011;23311;48.776;9.162;2022-11-14T05:33:53;12.57;;;10.57;;
291;SDS011;23311;48.776;9.162;2022-11-14T05:36:21;12.07;;;9.53;;
291;SDS011;23311;48.776;9.162;2022-11-14T05:38:49;13.07;;;10.37;;
291;SDS011;23311;48.776;9.162;2022-11-14T05:41:18;13.47;;;9.50;;
291;SDS011;23311;48.776;9.162;2022-11-14T05:43:46;14.37;;;11.33;;
291;SDS011;23311;48.776;9.162;2022-11-14T05:46:16;13.67;;;10.33;;
291;SDS011;23311;48.776;9.162;2022-11-14T05:48:44;12.17;;;9.97;;
291;SDS011;23311;48.776;9.162;2022-11-14T05:51:12;11.07;;;9.20;;
291;SDS011;23311;48.776;9.162;2022-11-14T05:53:40;12.20;;;8.60;;
291;SDS011;23311;48.776;9.162;2022-11-14T05:56:08;12.30;;;9.80;;
291;SDS011;23311;48.776;9.162;2022-11-14T05:58:38;11.00;;;8.23;;
291;SDS011;23311;48.776;9.162;2022-11-14T06:01:06;12.73;;;9.57;;
291;SDS011;23311;48.776;9.162;2022-11-14T06:03:38;13.10;;;10.27;;
291;SDS011;23311;48.776;9.162;2022-11-14T06:06:08;11.30;;;9.80;;
291;SDS011;23311;48.776;9.162;2022-11-14T06:08:37;9.93;;;8.10;;
291;SDS011;23311;48.776;9.162;2022-11-14T06:11:06;12.03;;;9.07;;
291;SDS011;23311;48.776;9.162;2022-11-14T06:13:36;10.87;;;8.50;;
291;SDS011;23311;48.776;9.162;2022-11-14T06:16:04;10.63;;;8.43;;
291;SDS011;23311;48.776;9.162;2022-11-14T06:18:34;8.70;;;7.70;;
291;SDS011;23311;48.776;9.162;2022-11-14T06:21:05;10.20;;;7.77;;
291;SDS011;23311;48.776;9.162;2022-11-14T06:23:34;12.20;;;9.10;;
291;SDS011;23311;48.776;9.162;2022-11-14T06:26:03;10.70;;;8.27;;
291;SDS011;23311;48.776;9.162;2022-11-14T06:28:33;9.67;;;7.60;;
291;SDS011;23311;48.776;9.162;2022-11-14T06:31:01;8.37;;;7.10;;
291;SDS011;23311;48.776;9.162;2022-11-14T06:33:32;8.90;;;6.83;;
291;SDS011;23311;48.776;9.162;2022-11-14T06:36:02;7.77;;;6.93;;
291;SDS011;23311;48.776;9.162;2022-11-14T06:38:33;8.23;;;6.93;;
291;SDS011;23311;48.776;9.162;2022-11-14T06:41:03;8.43;;;6.77;;
291;SDS011;23311;48.776;9.162;2022-11-14T06:43:32;12.27;;;8.47;;
291;SDS011;23311;48.776;9.162;2022-11-14T06:46:00;10.40;;;6.97;;
291;SDS011;23311;48.776;9.162;2022-11-14T06:48:29;8.83;;;6.07;;
291;SDS011;23311;48.776;9.162;2022-11-14T06:50:58;6.40;;;6.03;;
291;SDS011;23311;48.776;9.162;2022-11-14T06:53:30;8.93;;;7.47;;
291;SDS011;23311;48.776;9.162;2022-11-14T06:56:01;8.47;;;6.63;;
291;SDS011;23311;48.776;9.162;2022-11-14T06:58:31;7.43;;;5.73;;
291;SDS011;23311;48.776;9.162;2022-11-14T07:01:03;6.07;;;5.30;;
291;SDS011;23311;48.776;9.162;2022-11-14T07:03:32;7.30;;;5.77;;
291;SDS011;23311;48.776;9.162;2022-11-14T07:06:01;8.73;;;5.97;;
291;SDS011;23311;48.776;9.162;2022-11-14T07:08:31;6.50;;;5.70;;
291;SDS011;23311;48.776;9.162;2022-11-14T07:11:00;10.43;;;6.43;;
291;SDS011;23311;48.776;9.162;2022-11-14T07:13:30;8.07;;;6.23;;
291;SDS011;23311;48.776;9.162;2022-11-14T07:15:58;5.70;;;4.93;;
291;SDS011;23311;48.776;9.162;2022-11-14T07:18:28;9.47;;;6.50;;
291;SDS011;23311;48.776;9.162;2022-11-14T07:20:57;7.00;;;5.80;;
291;SDS011;23311;48.776;9.162;2022-11-14T07:23:27;8.43;;;7.00;;
291;SDS011;23311;48.776;9.162;2022-11-14T07:26:00;7.83;;;6.60;;
291;SDS011;23311;48.776;9.162;2022-11-14T07:28:29;8.60;;;6.60;;
291;SDS011;23311;48.776;9.162;2022-11-14T07:30:58;7.67;;;6.50;;
291;SDS011;23311;48.776;9.162;2022-11-14T07:33:29;8.93;;;6.43;;
291;SDS011;23311;48.776;9.162;2022-11-14T07:35:57;9.57;;;7.10;;
291;SDS011;23311;48.776;9.162;2022-11-14T07:38:25;8.70;;;6.80;;
291;SDS011;23311;48.776;9.162;2022-11-14T07:40:55;9.17;;;7.60;;
291;SDS011;23311;48.776;9.162;2022-11-14T07:43:27;9.60;;;6.57;;
291;SDS011;23311;48.776;9.162;2022-11-14T07:45:57;7.27;;;6.33;;
291;SDS011;23311;48.776;9.162;2022-11-14T07:48:26;8.80;;;7.10;;
291;SDS011;23311;48.776;9.162;2022-11-14T07:50:56;9.90;;;6.73;;
291;SDS011;23311;48.776;9.162;2022-11-14T07:53:26;8.47;;;7.50;;
291;SDS011;23311;48.776;9.162;2022-11-14T07:55:54;8.57;;;6.87;;
291;SDS011;23311;48.776;9.162;2022-11-14T07:58:23;8.87;;;6.50;;
291;SDS011;23311;48.776;9.162;2022-11-14T08:00:52;7.70;;;6.47;;
291;SDS011;23311;48.776;9.162;2022-11-14T08:03:20;9.07;;;7.13;;
291;SDS011;23311;48.776;9.162;2022-11-14T08:05:48;9.00;;;7.27;;
291;SDS011;23311;48.776;9.162;2022-11-14T08:08:16;8.60;;;6.37;;
291;SDS011;23311;48.776;9.162;2022-11-14T08:10:45;9.60;;;7.17;;
291;SDS011;23311;48.776;9.162;2022-11-14T08:13:13;9.10;;;6.43;;
291;SDS011;23311;48.776;9.162;2022-11-14T08:16:03;8.60;;;6.27;;
291;SDS011;23311;48.776;9.162;2022-11-14T08:18:38;7.83;;;6.30;;
291;SDS011;23311;48.776;9.162;2022-11-14T08:21:07;7.80;;;5.87;;
291;SDS011;23311;48.776;9.162;2022-11-14T08:23:35;7.70;;;6.40;;
291;SDS011;23311;48.776;9.162;2022-11-14T08:26:04;8.60;;;7.10;;
291;SDS011;23311;48.776;9.162;2022-11-14T08:28:32;6.90;;;5.60;;
291;SDS011;23311;48.776;9.162;2022-11-14T08:31:01;6.70;;;5.60;;
291;SDS011;23311;48.776;9.162;2022-11-14T08:33:31;8.17;;;5.67;;
291;SDS011;23311;48.776;9.162;2022-11-14T08:36:00;6.83;;;5.50;;
291;SDS011;23311;48.776;9.162;2022-11-14T08:38:29;9.10;;;5.47;;
291;SDS011;23311;48.776;9.162;2022-11-14T08:40:59;7.90;;;5.33;;
291;SDS011;23311;48.776;9.162;2022-11-14T08:43:27;6.30;;;4.67;;
291;SDS011;23311;48.776;9.162;2022-11-14T08:45:55;5.70;;;4.60;;
291;SDS011;23311;48.776;9.162;2022-11-14T08:48:27;5.57;;;3.93;;
291;SDS011;23311;48.776;9.162;2022-11-14T08:51:00;5.47;;;4.77;;
291;SDS011;23311;48.776;9.162;2022-11-14T08:53:29;4.83;;;4.17;;
291;SDS011;23311;48.776;9.162;2022-11-14T08:55:58;4.87;;;4.17;;
291;SDS011;23311;48.776;9.162;2022-11-14T08:58:26;5.40;;;4.10;;
291;SDS011;23311;48.776;9.162;2022-11-14T09:00:58;4.93;;;3.87;;
291;SDS011;23311;48.776;9.162;2022-11-14T09:03:27;4.37;;;3.17;;
291;SDS011;23311;48.776;9.162;2022-11-14T09:05:55;6.60;;;4.17;;
291;SDS011;23311;48.776;9.162;2022-11-14T09:08:25;3.93;;;3.07;;
291;SDS011;23311;48.776;9.162;2022-11-14T09:10:54;4.50;;;3.30;;
291;SDS011;23311;48.776;9.162;2022-11-14T09:13:31;5.10;;;3.70;;
291;SDS011;23311;48.776;9.162;2022-11-14T09:15:59;4.33;;;3.13;;
291;SDS011;23311;48.776;9.162;2022-11-14T09:18:28;5.30;;;3.13;;
291;SDS011;23311;48.776;9.162;2022-11-14T09:20:59;5.13;;;4.03;;
291;SDS011;23311;48.776;9.162;2022-11-14T09:23:28;4.50;;;3.80;;
291;SDS011;23311;48.776;9.162;2022-11-14T09:25:57;8.90;;;3.70;;
291;SDS011;23311;48.776;9.162;2022-11-14T09:28:29;4.63;;;3.57;;
291;SDS011;23311;48.776;9.162;2022-11-14T09:31:00;7.50;;;3.60;;
291;SDS011;23311;48.776;9.162;2022-11-14T09:33:29;7.50;;;3.40;;
291;SDS011;23311;48.776;9.162;2022-11-14T09:35:57;5.30;;;3.50;;
291;SDS011;23311;48.776;9.162;2022-11-14T09:38:27;3.77;;;3.40;;
291;SDS011;23311;48.776;9.162;2022-11-14T09:41:05;3.70;;;3.00;;
291;SDS011;23311;48.776;9.162;2022-11-14T09:44:12;4.43;;;3.80;;
291;SDS011;23311;48.776;9.162;2022-11-14T09:46:52;4.10;;;3.00;;
291;SDS011;23311;48.776;9.162;2022-11-14T09:49:26;4.80;;;4.27;;
291;SDS011;23311;48.776;9.162;2022-11-14T09:52:02;2.87;;;2.30;;
291;SDS011;23311;48.776;9.162;2022-11-14T09:54:41;3.50;;;2.77;;
291;SDS011;23311;48.776;9.162;2022-11-14T09:57:14;5.37;;;2.67;;
291;SDS011;23311;48.776;9.162;2022-11-14T09:59:44;4.10;;;2.60;;
291;SDS011;23311;48.776;9.162;2022-11-14T10:02:15;4.60;;;2.47;;
291;SDS011;23311;48.776;9.162;2022-11-14T10:04:51;6.93;;;4.10;;
291;SDS011;23311;48.776;9.162;2022-11-14T10:07:32;3.93;;;2.40;;
291;SDS011;23311;48.776;9.162;2022-11-14T10:10:15;4.00;;;2.77;;
291;SDS011;23311;48.776;9.162;2022-11-14T10:13:04;3.73;;;3.10;;
291;SDS011;23311;48.776;9.162;2022-11-14T10:15:41;3.20;;;2.37;;
291;SDS011;23311;48.776;9.162;2022-11-14T10:18:23;4.27;;;2.93;;
291;SDS011;23311;48.776;9.162;2022-11-14T10:21:04;4.17;;;2.40;;
291;SDS011;23311;48.776;9.162;2022-11-14T10:23:44;3.40;;;2.80;;
291;SDS011;23311;48.776;9.162;2022-11-14T10:26:21;4.10;;;3.07;;
291;SDS011;23311;48.776;9.162;2022-11-14T10:28:58;4.63;;;2.80;;
291;SDS011;23311;48.776;9.162;2022-11-14T10:31:52;4.37;;;2.83;;
291;SDS011;23311;48.776;9.162;2022-11-14T10:34:32;3.10;;;2.40;;
291;SDS011;23311;48.776;9.162;2022-11-14T10:37:09;4.07;;;2.80;;
291;SDS011;23311;48.776;9.162;2022-11-14T10:39:44;3.90;;;2.93;;
291;SDS011;23311;48.776;9.162;2022-11-14T10:42:18;4.00;;;3.00;;
291;SDS011;23311;48.776;9.162;2022-11-14T10:44:52;4.90;;;3.10;;
291;SDS011;23311;48.776;9.162;2022-11-14T10:47:24;5.93;;;3.03;;
291;SDS011;23311;48.776;9.162;2022-11-14T10:49:55;4.53;;;3.67;;
291;SDS011;23311;48.776;9.162;2022-11-14T10:52:36;4.30;;;3.20;;
291;SDS011;23311;48.776;9.162;2022-11-14T10:55:12;5.70;;;4.33;;
291;SDS011;23311;48.776;9.162;2022-11-14T10:57:41;6.40;;;3.50;;
291;SDS011;23311;48.776;9.162;2022-11-14T11:00:12;4.37;;;3.10;;
291;SDS011;23311;48.776;9.162;2022-11-14T11:02:49;5.00;;;3.57;;
291;SDS011;23311;48.776;9.162;2022-11-14T11:05:20;7.00;;;3.50;;
291;SDS011;23311;48.776;9.162;2022-11-14T11:07:50;3.47;;;2.70;;
291;SDS011;23311;48.776;9.162;2022-11-14T11:10:58;6.20;;;5.53;;
291;SDS011;23311;48.776;9.162;2022-11-14T11:13:48;4.77;;;3.50;;
291;SDS011;23311;48.776;9.162;2022-11-14T11:16:20;4.07;;;3.77;;
291;SDS011;23311;48.776;9.162;2022-11-14T11:18:49;5.63;;;4.53;;
291;SDS011;23311;48.776;9.162;2022-11-14T11:21:18;3.60;;;3.50;;
291;SDS011;23311;48.776;9.162;2022-11-14T11:23:49;3.70;;;3.20;;
291;SDS011;23311;48.776;9.162;2022-11-14T11:26:22;3.70;;;2.60;;
291;SDS011;23311;48.776;9.162;2022-11-14T11:29:01;3.07;;;2.93;;
291;SDS011;23311;48.776;9.162;2022-11-14T11:31:50;3.00;;;2.50;;
291;SDS011;23311;48.776;9.162;2022-11-14T11:34:21;2.77;;;2.50;;
291;SDS011;23311;48.776;9.162;2022-11-14T11:36:52;2.80;;;1.83;;
291;SDS011;23311;48.776;9.162;2022-11-14T11:39:26;2.00;;;1.60;;
291;SDS011;23311;48.776;9.162;2022-11-14T11:41:58;1.60;;;1.30;;
291;SDS011;23311;48.776;9.162;2022-11-14T11:44:36;2.30;;;2.10;;
291;SDS011;23311;48.776;9.162;2022-11-14T11:47:11;2.23;;;1.67;;
291;SDS011;23311;48.776;9.162;2022-11-14T11:49:43;3.40;;;3.20;;
291;SDS011;23311;48.776;9.162;2022-11-14T11:52:22;2.03;;;1.77;;
291;SDS011;23311;48.776;9.162;2022-11-14T11:54:59;2.20;;;1.53;;
291;SDS011;23311;48.776;9.162;2022-11-14T11:57:34;1.97;;;1.43;;
291;SDS011;23311;48.776;9.162;2022-11-14T12:00:13;1.67;;;1.20;;
291;SDS011;23311;48.776;9.162;2022-11-14T12:02:44;2.90;;;1.50;;
291;SDS011;23311;48.776;9.162;2022-11-14T12:05:16;3.87;;;1.30;;
291;SDS011;23311;48.776;9.162;2022-11-14T12:07:52;2.97;;;1.63;;
291;SDS011;23311;48.776;9.162;2022-11-14T12:10:25;2.40;;;1.60;;
291;SDS011;23311;48.776;9.162;2022-11-14T12:16:06;2.70;;;2.13;;
291;SDS011;23311;48.776;9.162;2022-11-14T12:18:56;3.70;;;1.90;;
291;SDS011;23311;48.776;9.162;2022-11-14T12:21:54;1.50;;;1.40;;
291;SDS011;23311;48.776;9.162;2022-11-14T12:24:40;1.70;;;1.23;;
291;SDS011;23311;48.776;9.162;2022-11-14T12:27:36;1.93;;;1.13;;
291;SDS011;23311;48.776;9.162;2022-11-14T12:30:22;3.50;;;1.63;;
291;SDS011;23311;48.776;9.162;2022-11-14T12:32:51;3.43;;;1.90;;
291;SDS011;23311;48.776;9.162;2022-11-14T12:35:24;2.43;;;1.37;;
291;SDS011;23311;48.776;9.162;2022-11-14T12:37:57;1.60;;;1.30;;
291;SDS011;23311;48.776;9.162;2022-11-14T12:40:28;3.33;;;1.93;;
291;SDS011;23311;48.776;9.162;2022-11-14T12:42:58;4.30;;;1.60;;
291;SDS011;23311;48.776;9.162;2022-11-14T12:48:30;2.13;;;1.77;;
291;SDS011;23311;48.776;9.162;2022-11-14T12:51:00;2.30;;;1.70;;
291;SDS011;23311;48.776;9.162;2022-11-14T12:53:37;2.90;;;1.60;;
291;SDS011;23311;48.776;9.162;2022-11-14T12:56:15;2.37;;;1.70;;
291;SDS011;23311;48.776;9.162;2022-11-14T12:59:12;3.07;;;2.00;;
291;SDS011;23311;48.776;9.162;2022-11-14T13:02:12;3.97;;;1.80;;
291;SDS011;23311;48.776;9.162;2022-11-14T13:05:13;1.80;;;1.60;;
291;SDS011;23311;48.776;9.162;2022-11-14T13:07:51;3.83;;;2.10;;
291;SDS011;23311;48.776;9.162;2022-11-14T13:10:35;3.30;;;1.73;;
291;SDS011;23311;48.776;9.162;2022-11-14T13:13:04;2.37;;;1.60;;
291;SDS011;23311;48.776;9.162;2022-11-14T13:15:53;2.03;;;1.33;;
291;SDS011;23311;48.776;9.162;2022-11-14T13:18:50;3.23;;;1.63;;
291;SDS011;23311;48.776;9.162;2022-11-14T13:21:38;4.37;;;2.17;;
291;SDS011;23311;48.776;9.162;2022-11-14T13:25:13;2.27;;;1.90;;
291;SDS011;23311;48.776;9.162;2022-11-14T13:27:44;3.87;;;2.70;;
291;SDS011;23311;48.776;9.162;2022-11-14T13:33:39;2.40;;;1.90;;
291;SDS011;23311;48.776;9.162;2022-11-14T13:36:09;3.03;;;1.60;;
291;SDS011;23311;48.776;9.162;2022-11-14T13:44:54;2.60;;;2.00;;
291;SDS011;23311;48.776;9.162;2022-11-14T13:50:47;1.80;;;1.70;;
291;SDS011;23311;48.776;9.162;2022-11-14T13:53:19;2.10;;;1.57;;
291;SDS011;23311;48.776;9.162;2022-11-14T13:55:53;3.27;;;2.10;;
291;SDS011;23311;48.776;9.162;2022-11-14T14:01:40;2.47;;;1.90;;
291;SDS011;23311;48.776;9.162;2022-11-14T14:04:18;4.37;;;1.93;;
291;SDS011;23311;48.776;9.162;2022-11-14T14:06:58;2.50;;;2.20;;
291;SDS011;23311;48.776;9.162;2022-11-14T14:09:36;4.30;;;2.00;;
291;SDS011;23311;48.776;9.162;2022-11-14T14:12:15;2.20;;;1.60;;
291;SDS011;23311;48.776;9.162;2022-11-14T14:15:13;3.10;;;2.37;;
291;SDS011;23311;48.776;9.162;2022-11-14T14:17:54;2.57;;;2.27;;
291;SDS011;23311;48.776;9.162;2022-11-14T14:20:32;4.67;;;2.17;;
291;SDS011;23311;48.776;9.162;2022-11-14T14:23:11;3.77;;;2.00;;
291;SDS011;23311;48.776;9.162;2022-11-14T14:25:50;2.70;;;1.83;;
291;SDS011;23311;48.776;9.162;2022-11-14T14:28:28;3.00;;;2.30;;
291;SDS011;23311;48.776;9.162;2022-11-14T14:31:09;3.47;;;2.47;;
291;SDS011;23311;48.776;9.162;2022-11-14T14:33:39;3.53;;;2.00;;
291;SDS011;23311;48.776;9.162;2022-11-14T14:36:22;3.10;;;2.40;;
291;SDS011;23311;48.776;9.162;2022-11-14T14:39:05;3.93;;;2.90;;
291;SDS011;23311;48.776;9.162;2022-11-14T14:41:42;3.40;;;2.50;;
291;SDS011;23311;48.776;9.162;2022-11-14T14:44:16;2.53;;;2.23;;
291;SDS011;23311;48.776;9.162;2022-11-14T14:46:48;2.30;;;1.93;;
291;SDS011;23311;48.776;9.162;2022-11-14T14:49:17;2.63;;;2.23;;
291;SDS011;23311;48.776;9.162;2022-11-14T14:51:48;3.23;;;2.13;;
291;SDS011;23311;48.776;9.162;2022-11-14T14:54:24;3.20;;;2.27;;
291;SDS011;23311;48.776;9.162;2022-11-14T14:56:55;2.10;;;1.90;;
291;SDS011;23311;48.776;9.162;2022-11-14T14:59:27;4.30;;;2.37;;
291;SDS011;23311;48.776;9.162;2022-11-14T15:01:56;3.13;;;2.57;;
291;SDS011;23311;48.776;9.162;2022-11-14T15:04:26;7.33;;;2.37;;
291;SDS011;23311;48.776;9.162;2022-11-14T15:06:55;3.63;;;1.97;;
291;SDS011;23311;48.776;9.162;2022-11-14T15:09:24;3.37;;;1.67;;
291;SDS011;23311;48.776;9.162;2022-11-14T15:11:56;2.90;;;1.70;;
291;SDS011;23311;48.776;9.162;2022-11-14T15:14:27;2.40;;;1.60;;
291;SDS011;23311;48.776;9.162;2022-11-14T15:16:58;2.87;;;2.27;;
291;SDS011;23311;48.776;9.162;2022-11-14T15:19:27;2.50;;;2.13;;
291;SDS011;23311;48.776;9.162;2022-11-14T15:22:04;2.33;;;1.60;;
291;SDS011;23311;48.776;9.162;2022-11-14T15:27:49;2.03;;;1.37;;
291;SDS011;23311;48.776;9.162;2022-11-14T15:30:20;3.80;;;1.80;;
291;SDS011;23311;48.776;9.162;2022-11-14T15:32:50;6.13;;;1.90;;
291;SDS011;23311;48.776;9.162;2022-11-14T15:35:24;2.93;;;1.97;;
291;SDS011;23311;48.776;9.162;2022-11-14T15:38:04;4.13;;;2.37;;
291;SDS011;23311;48.776;9.162;2022-11-14T15:41:09;5.37;;;2.20;;
291;SDS011;23311;48.776;9.162;2022-11-14T15:43:48;3.33;;;2.70;;
291;SDS011;23311;48.776;9.162;2022-11-14T15:46:31;5.50;;;3.03;;
291;SDS011;23311;48.776;9.162;2022-11-14T15:49:09;7.90;;;3.33;;
291;SDS011;23311;48.776;9.162;2022-11-14T15:51:46;3.90;;;2.40;;
291;SDS011;23311;48.776;9.162;2022-11-14T15:54:20;5.33;;;2.50;;
291;SDS011;23311;48.776;9.162;2022-11-14T15:56:50;4.57;;;3.10;;
291;SDS011;23311;48.776;9.162;2022-11-14T15:59:20;5.50;;;3.20;;
291;SDS011;23311;48.776;9.162;2022-11-14T16:01:49;4.90;;;3.57;;